sensor_id;sensor_type;location;lat;lon;timestamp;pressure;altitude;pressure_sealevel;temperature;humidity
58757;BME280;44527;47.460;19.016;2023-02-22T00:02:18;100288.53;;;8.03;86.70
58757;BME280;44527;47.460;19.016;2023-02-22T00:05:28;100289.19;;;8.07;86.80
58757;BME280;44527;47.460;19.016;2023-02-22T00:08:34;100279.84;;;8.03;86.31
58757;BME280;44527;47.460;19.016;2023-02-22T00:11:37;100278.53;;;7.96;86.62
58757;BME280;44527;47.460;19.016;2023-02-22T00:14:40;100274.97;;;7.97;86.75
58757;BME280;44527;47.460;19.016;2023-02-22T00:17:43;100281.97;;;7.80;87.16
58757;BME280;44527;47.460;19.016;2023-02-22T00:20:46;100280.09;;;7.98;85.93
58757;BME280;44527;47.460;19.016;2023-02-22T00:23:49;100287.00;;;7.83;86.43
58757;BME280;44527;47.460;19.016;2023-02-22T00:26:52;100289.56;;;7.85;86.17
58757;BME280;44527;47.460;19.016;2023-02-22T00:29:56;100281.91;;;7.66;86.45
58757;BME280;44527;47.460;19.016;2023-02-22T00:33:00;100295.38;;;7.74;86.45
58757;BME280;44527;47.460;19.016;2023-02-22T00:36:03;100293.84;;;7.54;87.21
58757;BME280;44527;47.460;19.016;2023-02-22T00:39:05;100303.84;;;7.30;89.07
58757;BME280;44527;47.460;19.016;2023-02-22T00:42:08;100301.00;;;7.35;89.34
58757;BME280;44527;47.460;19.016;2023-02-22T00:45:12;100299.25;;;7.51;88.49
58757;BME280;44527;47.460;19.016;2023-02-22T00:48:17;100294.78;;;7.53;88.07
58757;BME280;44527;47.460;19.016;2023-02-22T00:51:19;100290.75;;;7.48;88.65
58757;BME280;44527;47.460;19.016;2023-02-22T00:54:24;100301.69;;;7.54;88.59
58757;BME280;44527;47.460;19.016;2023-02-22T00:57:27;100293.84;;;7.54;88.48
58757;BME280;44527;47.460;19.016;2023-02-22T01:00:39;100291.25;;;7.54;88.48
58757;BME280;44527;47.460;19.016;2023-02-22T01:03:42;100291.91;;;7.58;88.48
58757;BME280;44527;47.460;19.016;2023-02-22T01:06:45;100293.03;;;7.70;87.73
58757;BME280;44527;47.460;19.016;2023-02-22T01:09:47;100290.47;;;7.68;87.79
58757;BME280;44527;47.460;19.016;2023-02-22T01:12:50;100295.03;;;7.80;87.14
58757;BME280;44527;47.460;19.016;2023-02-22T01:15:53;100282.13;;;7.77;87.08
58757;BME280;44527;47.460;19.016;2023-02-22T01:18:58;100282.62;;;7.68;87.80
58757;BME280;44527;47.460;19.016;2023-02-22T01:22:03;100283.50;;;7.69;87.69
58757;BME280;44527;47.460;19.016;2023-02-22T01:25:10;100280.13;;;7.67;87.85
58757;BME280;44527;47.460;19.016;2023-02-22T01:28:12;100284.25;;;7.87;86.85
58757;BME280;44527;47.460;19.016;2023-02-22T01:31:16;100279.09;;;7.85;86.69
58757;BME280;44527;47.460;19.016;2023-02-22T01:34:20;100272.59;;;7.92;86.31
58757;BME280;44527;47.460;19.016;2023-02-22T01:37:23;100281.37;;;7.91;86.32
58757;BME280;44527;47.460;19.016;2023-02-22T01:40:31;100275.56;;;7.70;87.09
58757;BME280;44527;47.460;19.016;2023-02-22T01:43:34;100268.47;;;7.88;86.04
58757;BME280;44527;47.460;19.016;2023-02-22T01:46:36;100271.69;;;7.77;86.50
58757;BME280;44527;47.460;19.016;2023-02-22T01:49:44;100277.78;;;7.78;86.21
58757;BME280;44527;47.460;19.016;2023-02-22T01:52:49;100268.91;;;7.65;86.80
58757;BME280;44527;47.460;19.016;2023-02-22T01:55:53;100270.63;;;7.66;86.80
58757;BME280;44527;47.460;19.016;2023-02-22T01:59:03;100269.91;;;7.62;87.16
58757;BME280;44527;47.460;19.016;2023-02-22T02:02:08;100273.06;;;7.69;86.70
58757;BME280;44527;47.460;19.016;2023-02-22T02:05:12;100271.28;;;7.53;87.63
58757;BME280;44527;47.460;19.016;2023-02-22T02:08:32;100267.22;;;7.48;88.10
58757;BME280;44527;47.460;19.016;2023-02-22T02:11:40;100265.62;;;7.29;88.86
58757;BME280;44527;47.460;19.016;2023-02-22T02:14:43;100268.31;;;7.44;88.44
58757;BME280;44527;47.460;19.016;2023-02-22T02:17:47;100261.91;;;7.49;87.91
58757;BME280;44527;47.460;19.016;2023-02-22T02:21:25;100260.41;;;7.45;88.46
58757;BME280;44527;47.460;19.016;2023-02-22T02:31:35;100258.41;;;7.50;88.35
58757;BME280;44527;47.460;19.016;2023-02-22T02:41:23;100263.00;;;7.61;87.90
58757;BME280;44527;47.460;19.016;2023-02-22T02:44:46;100278.84;;;7.58;88.29
58757;BME280;44527;47.460;19.016;2023-02-22T02:47:54;100273.22;;;7.66;87.78
58757;BME280;44527;47.460;19.016;2023-02-22T02:51:01;100271.84;;;7.74;87.25
58757;BME280;44527;47.460;19.016;2023-02-22T02:54:05;100264.53;;;7.65;88.03
58757;BME280;44527;47.460;19.016;2023-02-22T02:57:08;100261.91;;;7.65;88.11
58757;BME280;44527;47.460;19.016;2023-02-22T03:00:13;100268.75;;;7.68;87.93
58757;BME280;44527;47.460;19.016;2023-02-22T03:16:19;100270.00;;;7.76;87.42
58757;BME280;44527;47.460;19.016;2023-02-22T03:19:32;100266.12;;;7.68;87.70
58757;BME280;44527;47.460;19.016;2023-02-22T03:22:43;100272.34;;;7.65;87.73
58757;BME280;44527;47.460;19.016;2023-02-22T03:25:54;100268.22;;;7.77;87.51
58757;BME280;44527;47.460;19.016;2023-02-22T03:29:00;100271.50;;;7.80;87.22
58757;BME280;44527;47.460;19.016;2023-02-22T03:32:08;100265.81;;;7.90;86.53
58757;BME280;44527;47.460;19.016;2023-02-22T03:35:17;100271.00;;;7.74;87.58
58757;BME280;44527;47.460;19.016;2023-02-22T03:38:26;100266.06;;;7.69;87.90
58757;BME280;44527;47.460;19.016;2023-02-22T03:41:30;100261.66;;;7.70;87.99
58757;BME280;44527;47.460;19.016;2023-02-22T03:44:36;100260.00;;;7.69;88.16
58757;BME280;44527;47.460;19.016;2023-02-22T03:47:46;100271.28;;;7.69;88.15
58757;BME280;44527;47.460;19.016;2023-02-22T03:50:52;100275.22;;;7.76;87.69
58757;BME280;44527;47.460;19.016;2023-02-22T03:53:55;100269.50;;;7.70;88.07
58757;BME280;44527;47.460;19.016;2023-02-22T03:57:03;100269.16;;;7.76;87.56
58757;BME280;44527;47.460;19.016;2023-02-22T04:00:12;100275.41;;;7.73;88.41
58757;BME280;44527;47.460;19.016;2023-02-22T04:03:21;100278.28;;;7.69;88.79
58757;BME280;44527;47.460;19.016;2023-02-22T04:06:25;100272.88;;;7.72;88.58
58757;BME280;44527;47.460;19.016;2023-02-22T04:09:29;100278.00;;;7.73;88.65
58757;BME280;44527;47.460;19.016;2023-02-22T04:12:31;100273.91;;;7.69;89.68
58757;BME280;44527;47.460;19.016;2023-02-22T04:15:34;100278.94;;;7.72;89.96
58757;BME280;44527;47.460;19.016;2023-02-22T04:18:38;100280.13;;;7.82;90.09
58757;BME280;44527;47.460;19.016;2023-02-22T04:21:40;100269.44;;;7.87;90.15
58757;BME280;44527;47.460;19.016;2023-02-22T04:24:43;100274.47;;;7.90;90.51
58757;BME280;44527;47.460;19.016;2023-02-22T04:27:49;100277.25;;;8.03;90.19
58757;BME280;44527;47.460;19.016;2023-02-22T04:30:53;100271.41;;;7.98;91.25
58757;BME280;44527;47.460;19.016;2023-02-22T04:33:56;100270.16;;;8.05;91.62
58757;BME280;44527;47.460;19.016;2023-02-22T04:36:58;100276.53;;;8.15;90.99
58757;BME280;44527;47.460;19.016;2023-02-22T04:40:03;100266.09;;;8.15;91.07
58757;BME280;44527;47.460;19.016;2023-02-22T04:43:09;100277.69;;;8.41;89.09
58757;BME280;44527;47.460;19.016;2023-02-22T04:46:13;100271.44;;;8.28;90.15
58757;BME280;44527;47.460;19.016;2023-02-22T04:49:16;100273.22;;;8.27;90.81
58757;BME280;44527;47.460;19.016;2023-02-22T04:52:19;100279.22;;;8.29;90.45
58757;BME280;44527;47.460;19.016;2023-02-22T04:55:22;100281.22;;;8.40;89.95
58757;BME280;44527;47.460;19.016;2023-02-22T04:58:24;100280.16;;;8.59;88.71
58757;BME280;44527;47.460;19.016;2023-02-22T05:01:31;100282.59;;;8.62;88.69
58757;BME280;44527;47.460;19.016;2023-02-22T05:04:37;100281.97;;;8.72;87.92
58757;BME280;44527;47.460;19.016;2023-02-22T05:07:39;100288.41;;;8.81;87.68
58757;BME280;44527;47.460;19.016;2023-02-22T05:10:42;100285.16;;;8.92;87.24
58757;BME280;44527;47.460;19.016;2023-02-22T05:13:44;100287.69;;;8.93;86.80
58757;BME280;44527;47.460;19.016;2023-02-22T05:16:47;100285.25;;;8.90;86.87
58757;BME280;44527;47.460;19.016;2023-02-22T05:19:50;100283.84;;;8.99;86.85
58757;BME280;44527;47.460;19.016;2023-02-22T05:22:54;100286.66;;;8.96;86.96
58757;BME280;44527;47.460;19.016;2023-02-22T05:25:56;100282.19;;;8.98;86.36
58757;BME280;44527;47.460;19.016;2023-02-22T05:28:59;100286.31;;;9.16;85.41
58757;BME280;44527;47.460;19.016;2023-02-22T05:32:01;100294.81;;;9.20;85.02
58757;BME280;44527;47.460;19.016;2023-02-22T05:35:04;100292.09;;;9.22;84.75
58757;BME280;44527;47.460;19.016;2023-02-22T05:38:09;100284.53;;;9.31;84.18
58757;BME280;44527;47.460;19.016;2023-02-22T05:41:12;100293.47;;;9.27;84.59
58757;BME280;44527;47.460;19.016;2023-02-22T05:44:15;100300.59;;;9.39;83.64
58757;BME280;44527;47.460;19.016;2023-02-22T05:47:17;100310.16;;;9.40;84.05
58757;BME280;44527;47.460;19.016;2023-02-22T05:50:21;100304.34;;;9.50;83.58
58757;BME280;44527;47.460;19.016;2023-02-22T05:53:24;100315.47;;;9.53;82.58
58757;BME280;44527;47.460;19.016;2023-02-22T05:56:28;100321.47;;;9.41;82.77
58757;BME280;44527;47.460;19.016;2023-02-22T05:59:33;100325.22;;;9.23;83.56
58757;BME280;44527;47.460;19.016;2023-02-22T06:02:36;100332.69;;;9.14;84.10
58757;BME280;44527;47.460;19.016;2023-02-22T06:05:39;100333.13;;;8.92;86.06
58757;BME280;44527;47.460;19.016;2023-02-22T06:08:41;100347.34;;;9.03;85.50
58757;BME280;44527;47.460;19.016;2023-02-22T06:11:45;100347.84;;;9.09;85.21
58757;BME280;44527;47.460;19.016;2023-02-22T06:14:47;100347.56;;;9.14;85.10
58757;BME280;44527;47.460;19.016;2023-02-22T06:17:52;100347.09;;;9.36;83.58
58757;BME280;44527;47.460;19.016;2023-02-22T06:20:54;100349.25;;;9.43;83.85
58757;BME280;44527;47.460;19.016;2023-02-22T06:24:03;100351.78;;;9.59;83.41
58757;BME280;44527;47.460;19.016;2023-02-22T06:27:05;100361.12;;;9.78;82.35
58757;BME280;44527;47.460;19.016;2023-02-22T06:30:09;100358.16;;;9.97;81.73
58757;BME280;44527;47.460;19.016;2023-02-22T06:33:14;100359.53;;;10.44;80.29
58757;BME280;44527;47.460;19.016;2023-02-22T06:36:17;100369.31;;;10.81;78.93
58757;BME280;44527;47.460;19.016;2023-02-22T06:39:19;100359.91;;;11.17;77.17
58757;BME280;44527;47.460;19.016;2023-02-22T06:42:22;100368.19;;;11.62;73.93
58757;BME280;44527;47.460;19.016;2023-02-22T06:45:25;100377.97;;;11.86;73.20
58757;BME280;44527;47.460;19.016;2023-02-22T06:48:28;100370.72;;;12.13;70.74
58757;BME280;44527;47.460;19.016;2023-02-22T06:51:34;100372.00;;;12.08;71.77
58757;BME280;44527;47.460;19.016;2023-02-22T06:54:38;100382.00;;;12.15;71.64
58757;BME280;44527;47.460;19.016;2023-02-22T06:57:41;100376.31;;;12.33;70.25
58757;BME280;44527;47.460;19.016;2023-02-22T07:00:43;100380.31;;;12.62;69.28
58757;BME280;44527;47.460;19.016;2023-02-22T07:03:47;100382.16;;;13.20;68.56
58757;BME280;44527;47.460;19.016;2023-02-22T07:06:50;100375.38;;;13.51;67.64
58757;BME280;44527;47.460;19.016;2023-02-22T07:09:52;100379.78;;;14.18;66.70
58757;BME280;44527;47.460;19.016;2023-02-22T07:12:55;100373.28;;;14.86;62.13
58757;BME280;44527;47.460;19.016;2023-02-22T07:15:58;100379.03;;;14.91;60.65
58757;BME280;44527;47.460;19.016;2023-02-22T07:19:01;100381.38;;;14.53;61.46
58757;BME280;44527;47.460;19.016;2023-02-22T07:22:03;100385.19;;;14.05;62.82
58757;BME280;44527;47.460;19.016;2023-02-22T07:25:08;100378.31;;;13.24;64.65
58757;BME280;44527;47.460;19.016;2023-02-22T07:28:11;100386.03;;;12.56;68.28
58757;BME280;44527;47.460;19.016;2023-02-22T07:31:15;100387.69;;;12.33;69.84
58757;BME280;44527;47.460;19.016;2023-02-22T07:34:18;100375.94;;;12.26;70.54
58757;BME280;44527;47.460;19.016;2023-02-22T07:37:20;100381.03;;;12.16;69.71
58757;BME280;44527;47.460;19.016;2023-02-22T07:40:24;100380.72;;;12.08;70.77
58757;BME280;44527;47.460;19.016;2023-02-22T07:43:28;100390.56;;;11.93;70.31
58757;BME280;44527;47.460;19.016;2023-02-22T07:46:32;100386.37;;;11.65;71.39
58757;BME280;44527;47.460;19.016;2023-02-22T07:49:35;100391.59;;;11.78;71.33
58757;BME280;44527;47.460;19.016;2023-02-22T07:52:37;100384.47;;;11.67;71.84
58757;BME280;44527;47.460;19.016;2023-02-22T07:55:40;100395.41;;;11.87;71.72
58757;BME280;44527;47.460;19.016;2023-02-22T07:58:43;100385.84;;;12.23;69.89
58757;BME280;44527;47.460;19.016;2023-02-22T08:01:48;100385.47;;;12.16;70.74
58757;BME280;44527;47.460;19.016;2023-02-22T08:04:51;100390.38;;;12.21;70.34
58757;BME280;44527;47.460;19.016;2023-02-22T08:07:53;100379.63;;;12.24;69.92
58757;BME280;44527;47.460;19.016;2023-02-22T08:10:56;100388.34;;;12.24;69.82
58757;BME280;44527;47.460;19.016;2023-02-22T08:14:00;100381.38;;;12.36;69.31
58757;BME280;44527;47.460;19.016;2023-02-22T08:17:03;100383.22;;;12.47;68.98
58757;BME280;44527;47.460;19.016;2023-02-22T08:20:05;100387.59;;;12.35;69.45
58757;BME280;44527;47.460;19.016;2023-02-22T08:23:09;100378.88;;;12.58;68.78
58757;BME280;44527;47.460;19.016;2023-02-22T08:26:12;100380.38;;;12.50;68.58
58757;BME280;44527;47.460;19.016;2023-02-22T08:29:17;100385.72;;;12.72;68.80
58757;BME280;44527;47.460;19.016;2023-02-22T08:32:19;100383.19;;;13.06;67.25
58757;BME280;44527;47.460;19.016;2023-02-22T08:35:22;100391.91;;;13.30;65.23
58757;BME280;44527;47.460;19.016;2023-02-22T08:38:27;100388.09;;;13.35;65.33
58757;BME280;44527;47.460;19.016;2023-02-22T08:41:30;100389.66;;;13.60;65.23
58757;BME280;44527;47.460;19.016;2023-02-22T08:44:32;100390.47;;;13.94;64.11
58757;BME280;44527;47.460;19.016;2023-02-22T08:47:35;100384.41;;;14.25;62.79
58757;BME280;44527;47.460;19.016;2023-02-22T08:50:37;100385.94;;;14.39;60.33
58757;BME280;44527;47.460;19.016;2023-02-22T08:53:42;100389.28;;;14.53;60.17
58757;BME280;44527;47.460;19.016;2023-02-22T08:56:45;100389.19;;;14.43;60.56
58757;BME280;44527;47.460;19.016;2023-02-22T08:59:47;100387.75;;;14.82;58.17
58757;BME280;44527;47.460;19.016;2023-02-22T09:02:51;100393.63;;;15.28;57.84
58757;BME280;44527;47.460;19.016;2023-02-22T09:05:53;100395.56;;;15.87;56.43
58757;BME280;44527;47.460;19.016;2023-02-22T09:08:56;100389.81;;;15.72;57.58
58757;BME280;44527;47.460;19.016;2023-02-22T09:11:58;100388.94;;;15.41;57.33
58757;BME280;44527;47.460;19.016;2023-02-22T09:15:00;100399.75;;;15.59;56.34
58757;BME280;44527;47.460;19.016;2023-02-22T09:18:05;100393.00;;;15.24;58.19
58757;BME280;44527;47.460;19.016;2023-02-22T09:21:09;100391.97;;;14.74;59.70
58757;BME280;44527;47.460;19.016;2023-02-22T09:24:13;100392.44;;;14.35;61.70
58757;BME280;44527;47.460;19.016;2023-02-22T09:27:15;100391.69;;;14.44;61.07
58757;BME280;44527;47.460;19.016;2023-02-22T09:30:26;100388.84;;;14.36;62.01
58757;BME280;44527;47.460;19.016;2023-02-22T09:33:28;100393.91;;;14.28;61.42
58757;BME280;44527;47.460;19.016;2023-02-22T09:36:31;100397.47;;;13.84;62.15
58757;BME280;44527;47.460;19.016;2023-02-22T09:39:34;100400.56;;;13.66;63.82
58757;BME280;44527;47.460;19.016;2023-02-22T09:42:47;100396.13;;;13.67;63.67
58757;BME280;44527;47.460;19.016;2023-02-22T09:46:09;100390.13;;;13.53;64.18
58757;BME280;44527;47.460;19.016;2023-02-22T09:49:32;100392.72;;;13.31;66.05
58757;BME280;44527;47.460;19.016;2023-02-22T09:52:42;100390.94;;;13.43;65.88
58757;BME280;44527;47.460;19.016;2023-02-22T09:55:52;100391.97;;;13.18;67.05
58757;BME280;44527;47.460;19.016;2023-02-22T09:59:00;100391.97;;;13.18;66.33
58757;BME280;44527;47.460;19.016;2023-02-22T10:02:24;100404.00;;;12.98;67.34
58757;BME280;44527;47.460;19.016;2023-02-22T10:05:31;100394.19;;;13.00;67.12
58757;BME280;44527;47.460;19.016;2023-02-22T10:08:35;100390.91;;;12.85;68.63
58757;BME280;44527;47.460;19.016;2023-02-22T10:11:50;100393.00;;;13.04;67.51
58757;BME280;44527;47.460;19.016;2023-02-22T10:25:34;100395.66;;;13.73;64.80
58757;BME280;44527;47.460;19.016;2023-02-22T10:28:41;100390.00;;;13.89;64.22
58757;BME280;44527;47.460;19.016;2023-02-22T10:31:50;100380.91;;;13.70;63.95
58757;BME280;44527;47.460;19.016;2023-02-22T10:34:53;100381.38;;;13.64;64.58
58757;BME280;44527;47.460;19.016;2023-02-22T10:41:22;100373.34;;;13.66;64.30
58757;BME280;44527;47.460;19.016;2023-02-22T10:44:27;100378.47;;;13.33;65.38
58757;BME280;44527;47.460;19.016;2023-02-22T10:47:30;100378.78;;;13.18;66.67
58757;BME280;44527;47.460;19.016;2023-02-22T10:50:34;100375.84;;;13.33;66.22
58757;BME280;44527;47.460;19.016;2023-02-22T10:53:38;100372.72;;;13.40;65.17
58757;BME280;44527;47.460;19.016;2023-02-22T10:56:49;100362.63;;;13.22;65.85
58757;BME280;44527;47.460;19.016;2023-02-22T10:59:52;100358.59;;;13.29;65.47
58757;BME280;44527;47.460;19.016;2023-02-22T11:03:00;100358.91;;;13.14;65.79
58757;BME280;44527;47.460;19.016;2023-02-22T11:06:18;100354.41;;;12.92;67.45
58757;BME280;44527;47.460;19.016;2023-02-22T11:09:24;100353.50;;;13.15;65.77
58757;BME280;44527;47.460;19.016;2023-02-22T11:12:32;100345.91;;;13.35;64.82
58757;BME280;44527;47.460;19.016;2023-02-22T11:15:35;100340.25;;;13.39;66.43
58757;BME280;44527;47.460;19.016;2023-02-22T11:18:38;100347.94;;;13.53;65.02
58757;BME280;44527;47.460;19.016;2023-02-22T11:21:41;100346.00;;;13.67;65.36
58757;BME280;44527;47.460;19.016;2023-02-22T11:24:46;100347.12;;;13.53;65.19
58757;BME280;44527;47.460;19.016;2023-02-22T11:27:52;100341.31;;;13.82;64.16
58757;BME280;44527;47.460;19.016;2023-02-22T11:30:56;100342.47;;;14.11;63.67
58757;BME280;44527;47.460;19.016;2023-02-22T11:34:01;100343.22;;;14.34;61.68
58757;BME280;44527;47.460;19.016;2023-02-22T11:37:34;100338.72;;;14.14;63.06
58757;BME280;44527;47.460;19.016;2023-02-22T11:40:38;100336.06;;;13.70;64.74
58757;BME280;44527;47.460;19.016;2023-02-22T11:43:43;100327.56;;;13.78;64.37
58757;BME280;44527;47.460;19.016;2023-02-22T11:46:47;100337.47;;;13.86;64.13
58757;BME280;44527;47.460;19.016;2023-02-22T11:49:49;100337.12;;;13.79;63.93
58757;BME280;44527;47.460;19.016;2023-02-22T11:56:33;100325.75;;;13.67;66.03
58757;BME280;44527;47.460;19.016;2023-02-22T12:03:01;100327.66;;;13.76;64.58
58757;BME280;44527;47.460;19.016;2023-02-22T12:10:07;100323.94;;;13.68;65.41
58757;BME280;44527;47.460;19.016;2023-02-22T12:16:39;100311.59;;;13.79;65.36
58757;BME280;44527;47.460;19.016;2023-02-22T12:20:00;100316.72;;;13.92;64.42
58757;BME280;44527;47.460;19.016;2023-02-22T12:26:24;100308.34;;;13.76;64.66
58757;BME280;44527;47.460;19.016;2023-02-22T12:29:33;100312.41;;;13.80;65.12
58757;BME280;44527;47.460;19.016;2023-02-22T12:32:47;100312.16;;;13.83;64.07
58757;BME280;44527;47.460;19.016;2023-02-22T12:35:53;100305.47;;;13.79;64.24
58757;BME280;44527;47.460;19.016;2023-02-22T12:39:02;100305.63;;;13.55;65.43
58757;BME280;44527;47.460;19.016;2023-02-22T12:42:18;100305.41;;;13.47;66.37
58757;BME280;44527;47.460;19.016;2023-02-22T12:45:35;100303.94;;;13.43;66.95
58757;BME280;44527;47.460;19.016;2023-02-22T12:48:56;100302.28;;;13.42;65.95
58757;BME280;44527;47.460;19.016;2023-02-22T12:55:30;100289.53;;;13.24;67.32
58757;BME280;44527;47.460;19.016;2023-02-22T12:58:39;100287.03;;;13.23;67.32
58757;BME280;44527;47.460;19.016;2023-02-22T13:01:54;100291.03;;;13.28;67.30
58757;BME280;44527;47.460;19.016;2023-02-22T13:04:59;100279.47;;;13.18;67.70
58757;BME280;44527;47.460;19.016;2023-02-22T13:24:47;100280.00;;;13.35;67.31
58757;BME280;44527;47.460;19.016;2023-02-22T13:28:23;100273.28;;;13.42;67.16
58757;BME280;44527;47.460;19.016;2023-02-22T13:45:19;100289.22;;;13.40;68.02
58757;BME280;44527;47.460;19.016;2023-02-22T13:52:05;100281.69;;;13.36;68.41
58757;BME280;44527;47.460;19.016;2023-02-22T13:55:18;100285.28;;;13.35;68.48
58757;BME280;44527;47.460;19.016;2023-02-22T13:58:25;100283.81;;;13.30;68.32
58757;BME280;44527;47.460;19.016;2023-02-22T14:01:44;100286.06;;;13.13;69.21
58757;BME280;44527;47.460;19.016;2023-02-22T14:04:47;100274.34;;;13.17;69.55
58757;BME280;44527;47.460;19.016;2023-02-22T14:07:49;100278.53;;;13.19;69.38
58757;BME280;44527;47.460;19.016;2023-02-22T14:11:38;100274.69;;;13.12;69.58
58757;BME280;44527;47.460;19.016;2023-02-22T14:14:30;100277.91;;;13.16;69.82
58757;BME280;44527;47.460;19.016;2023-02-22T14:17:33;100272.66;;;13.04;70.44
58757;BME280;44527;47.460;19.016;2023-02-22T14:20:36;100267.87;;;12.98;71.08
58757;BME280;44527;47.460;19.016;2023-02-22T14:23:52;100271.94;;;13.14;70.50
58757;BME280;44527;47.460;19.016;2023-02-22T14:27:00;100267.41;;;13.04;70.43
58757;BME280;44527;47.460;19.016;2023-02-22T14:30:05;100270.25;;;13.01;71.41
58757;BME280;44527;47.460;19.016;2023-02-22T14:37:02;100266.44;;;13.05;70.27
58757;BME280;44527;47.460;19.016;2023-02-22T14:40:25;100270.97;;;12.92;69.78
58757;BME280;44527;47.460;19.016;2023-02-22T14:43:29;100270.38;;;13.00;68.50
58757;BME280;44527;47.460;19.016;2023-02-22T14:46:36;100265.47;;;13.06;69.73
58757;BME280;44527;47.460;19.016;2023-02-22T14:49:50;100270.38;;;13.11;68.99
58757;BME280;44527;47.460;19.016;2023-02-22T14:53:02;100260.09;;;13.19;68.60
58757;BME280;44527;47.460;19.016;2023-02-22T14:56:16;100254.34;;;13.14;68.57
58757;BME280;44527;47.460;19.016;2023-02-22T14:59:25;100254.81;;;13.08;68.38
58757;BME280;44527;47.460;19.016;2023-02-22T15:02:37;100259.00;;;12.99;67.59
58757;BME280;44527;47.460;19.016;2023-02-22T15:05:39;100260.06;;;12.97;65.92
58757;BME280;44527;47.460;19.016;2023-02-22T15:08:45;100261.75;;;13.09;65.62
58757;BME280;44527;47.460;19.016;2023-02-22T15:15:31;100253.00;;;13.08;65.75
58757;BME280;44527;47.460;19.016;2023-02-22T15:18:40;100252.31;;;12.95;65.18
58757;BME280;44527;47.460;19.016;2023-02-22T15:21:44;100254.19;;;12.82;66.53
58757;BME280;44527;47.460;19.016;2023-02-22T15:25:01;100244.94;;;12.76;66.83
58757;BME280;44527;47.460;19.016;2023-02-22T15:28:05;100245.19;;;12.73;66.52
58757;BME280;44527;47.460;19.016;2023-02-22T15:31:32;100246.75;;;12.76;65.97
58757;BME280;44527;47.460;19.016;2023-02-22T15:34:35;100241.34;;;12.66;66.05
58757;BME280;44527;47.460;19.016;2023-02-22T15:37:37;100238.94;;;12.63;66.98
58757;BME280;44527;47.460;19.016;2023-02-22T15:40:41;100246.84;;;12.63;65.74
58757;BME280;44527;47.460;19.016;2023-02-22T15:43:44;100246.94;;;12.50;64.79
58757;BME280;44527;47.460;19.016;2023-02-22T15:46:49;100242.00;;;12.46;65.62
58757;BME280;44527;47.460;19.016;2023-02-22T15:50:19;100241.53;;;12.40;64.21
58757;BME280;44527;47.460;19.016;2023-02-22T15:53:36;100235.28;;;12.30;65.23
58757;BME280;44527;47.460;19.016;2023-02-22T15:56:51;100241.63;;;12.28;64.27
58757;BME280;44527;47.460;19.016;2023-02-22T15:59:57;100244.59;;;12.23;64.83
58757;BME280;44527;47.460;19.016;2023-02-22T16:03:19;100240.75;;;12.16;66.57
58757;BME280;44527;47.460;19.016;2023-02-22T16:09:36;100244.37;;;12.02;68.33
58757;BME280;44527;47.460;19.016;2023-02-22T16:12:41;100241.50;;;11.94;66.93
58757;BME280;44527;47.460;19.016;2023-02-22T16:15:53;100245.06;;;11.93;68.14
58757;BME280;44527;47.460;19.016;2023-02-22T16:22:32;100252.28;;;12.02;72.71
58757;BME280;44527;47.460;19.016;2023-02-22T16:25:35;100247.91;;;11.90;73.89
58757;BME280;44527;47.460;19.016;2023-02-22T16:28:46;100250.47;;;11.79;74.58
58757;BME280;44527;47.460;19.016;2023-02-22T16:31:53;100252.56;;;11.86;74.68
58757;BME280;44527;47.460;19.016;2023-02-22T16:34:55;100254.66;;;11.81;72.87
58757;BME280;44527;47.460;19.016;2023-02-22T16:38:04;100269.41;;;11.71;75.52
58757;BME280;44527;47.460;19.016;2023-02-22T16:41:10;100250.44;;;11.55;76.75
58757;BME280;44527;47.460;19.016;2023-02-22T16:44:13;100268.31;;;11.49;77.29
58757;BME280;44527;47.460;19.016;2023-02-22T16:47:20;100264.25;;;11.45;77.40
58757;BME280;44527;47.460;19.016;2023-02-22T16:50:23;100269.94;;;11.39;78.25
58757;BME280;44527;47.460;19.016;2023-02-22T16:53:27;100266.12;;;11.43;77.93
58757;BME280;44527;47.460;19.016;2023-02-22T16:56:31;100275.06;;;11.41;78.84
58757;BME280;44527;47.460;19.016;2023-02-22T16:59:38;100275.72;;;11.32;78.62
58757;BME280;44527;47.460;19.016;2023-02-22T17:02:41;100275.22;;;11.26;78.83
58757;BME280;44527;47.460;19.016;2023-02-22T17:05:43;100283.00;;;11.15;80.14
58757;BME280;44527;47.460;19.016;2023-02-22T17:08:46;100280.03;;;11.07;79.96
58757;BME280;44527;47.460;19.016;2023-02-22T17:11:52;100283.00;;;11.02;80.89
58757;BME280;44527;47.460;19.016;2023-02-22T17:14:57;100280.59;;;10.99;81.90
58757;BME280;44527;47.460;19.016;2023-02-22T17:18:01;100276.16;;;11.00;82.37
58757;BME280;44527;47.460;19.016;2023-02-22T17:21:09;100280.87;;;10.95;82.79
58757;BME280;44527;47.460;19.016;2023-02-22T17:24:21;100285.09;;;10.97;83.49
58757;BME280;44527;47.460;19.016;2023-02-22T17:27:30;100282.91;;;10.91;83.18
58757;BME280;44527;47.460;19.016;2023-02-22T17:30:33;100284.34;;;10.82;83.98
58757;BME280;44527;47.460;19.016;2023-02-22T17:33:39;100283.84;;;10.77;84.40
58757;BME280;44527;47.460;19.016;2023-02-22T17:36:41;100281.63;;;10.71;85.27
58757;BME280;44527;47.460;19.016;2023-02-22T17:39:44;100281.31;;;10.63;86.44
58757;BME280;44527;47.460;19.016;2023-02-22T17:42:46;100285.50;;;10.66;85.87
58757;BME280;44527;47.460;19.016;2023-02-22T17:45:51;100280.66;;;10.60;86.15
58757;BME280;44527;47.460;19.016;2023-02-22T17:48:54;100282.13;;;10.51;87.20
58757;BME280;44527;47.460;19.016;2023-02-22T17:51:58;100273.63;;;10.47;87.10
58757;BME280;44527;47.460;19.016;2023-02-22T17:55:04;100274.34;;;10.49;87.25